Latest Weather Observations for Applethorpe

IDQ60801

Issued at 11:35 pm EST Friday 22 August 2014 (issued every 30 minutes, with the page automatically refreshed every 10 minutes)

About weather observations | Map of weather stations | Latest weather observations for QLD | Other Formats
Station Details ID: 041175 Name: APPLETHORPE Lat: -28.62 Lon: 151.95 Height: 871.6 m
Data from the previous 72 hours. | See also: Recent months at Applethorpe
Date/Time
EST
Temp
°C
App
Temp
°C
Dew
Point
Rel
Hum
%
Delta-T
°C
Wind Press
QNH
hPa
Press
MSL
hPa
Rain
since 9 am
mm
Dir
 
Spd
km/h
Gust
km/h
Spd
kts
Gust
kts
22/11:30pm 8.7 6.5 7.7 93 0.5 ESE 9 17 5 9 1026.3 1026.1 1.6
22/11:00pm 9.1 6.4 7.3 88 0.9 ESE 11 20 6 11 1026.1 1025.9 1.6
22/10:30pm 9.1 6.8 7.5 90 0.8 ESE 9 22 5 12 1026.3 1026.1 1.4
22/10:00pm 9.1 6.9 7.7 91 0.7 ESE 9 20 5 11 1026.5 1026.4 1.4
22/09:30pm 9.1 6.1 7.7 91 0.7 ESE 13 19 7 10 1026.6 1026.5 1.4
22/09:00pm 8.8 6.5 7.6 92 0.6 ESE 9 19 5 10 1026.9 1026.8 1.2
22/08:30pm 8.7 6.8 7.5 92 0.6 ESE 7 15 4 8 1026.8 1026.7 1.2
22/08:00pm 8.5 6.2 7.5 93 0.5 ESE 9 19 5 10 1026.8 1026.7 1.2
22/07:30pm 8.3 6.3 7.1 92 0.6 ESE 7 13 4 7 1026.7 1026.6 1.0
22/07:00pm 8.0 5.6 7.2 95 0.4 ESE 9 15 5 8 1026.8 1026.7 1.0
22/06:30pm 8.5 5.7 7.1 91 0.7 ESE 11 22 6 12 1026.5 1026.4 1.0
22/06:00pm 8.5 6.1 7.1 91 0.7 ESE 9 22 5 12 1026.0 1025.8 1.0
22/05:30pm 8.5 6.6 7.5 93 0.5 ESE 7 17 4 9 1025.6 1025.5 1.0
22/05:00pm 8.7 6.1 7.7 93 0.5 ESE 11 24 6 13 1025.7 1025.6 0.8
22/04:30pm 9.0 6.5 8.0 93 0.5 ESE 11 24 6 13 1025.9 1025.7 0.0
22/04:00pm 9.3 6.4 8.1 92 0.6 ESE 13 26 7 14 1025.5 1025.4 0.0
22/03:30pm 9.8 6.4 7.8 87 1.0 ESE 15 30 8 16 1025.2 1025.0 0.0
22/03:00pm 10.1 7.2 8.1 87 1.0 E 13 32 7 17 1025.1 1024.9 0.0
22/02:30pm 10.6 8.1 8.0 84 1.3 ESE 11 24 6 13 1025.1 1024.9 0.0
22/02:00pm 10.5 7.6 8.1 85 1.2 ESE 13 24 7 13 1025.3 1025.1 0.0
22/01:30pm 10.5 8.0 8.3 86 1.1 ESE 11 26 6 14 1025.7 1025.6 0.0
22/01:00pm 10.7 7.3 7.7 82 1.5 ESE 15 32 8 17 1026.0 1025.8 0.0
22/12:30pm 11.1 8.1 7.5 78 1.8 ESE 13 24 7 13 1026.2 1026.0 0.0
22/12:00pm 11.1 7.7 7.5 78 1.8 ESE 15 26 8 14 1026.7 1026.6 0.0
22/11:30am 11.7 9.2 8.0 78 1.9 ESE 11 22 6 12 1027.2 1027.0 0.0
22/11:00am 11.2 7.8 7.6 78 1.8 ESE 15 30 8 16 1027.4 1027.2 0.0
22/10:30am 10.7 8.0 7.5 80 1.6 ESE 11 20 6 11 1027.8 1027.7 0.0
22/10:00am 10.7 7.6 7.1 78 1.8 ESE 13 22 7 12 1027.9 1027.8 0.0
22/09:30am 10.1 6.0 6.4 78 1.8 ESE 17 28 9 15 1027.7 1027.6 0.0
22/09:00am 9.7 6.8 6.6 81 1.5 ESE 11 24 6 13 1027.5 1027.4 0.0
22/08:30am 9.2 6.7 6.7 84 1.2 ESE 9 24 5 13 1027.6 1027.5 0.0
22/08:00am 9.1 6.6 6.4 83 1.3 ESE 9 19 5 10 1027.4 1027.2 0.0
22/07:30am 8.9 6.4 6.4 84 1.2 E 9 20 5 11 1027.1 1026.9 0.0
22/07:00am 8.5 5.6 6.4 87 1.0 ESE 11 24 6 13 1026.8 1026.7 0.0
22/06:30am 8.5 5.6 6.4 87 1.0 ESE 11 20 6 11 1026.6 1026.5 0.0
22/06:00am 8.3 5.7 6.2 87 1.0 ESE 9 22 5 12 1025.7 1025.6 0.0
22/05:30am 8.5 5.2 6.4 87 1.0 ESE 13 24 7 13 1025.7 1025.6 0.0
22/05:00am 8.4 5.0 6.1 85 1.1 ESE 13 26 7 14 1025.2 1025.0 0.0
22/04:30am 8.0 4.6 5.9 86 1.0 ESE 13 30 7 16 1024.7 1024.5 0.0
22/04:00am 8.2 5.5 5.4 82 1.3 E 9 19 5 10 1024.4 1024.3 0.0
22/03:30am 8.4 5.8 5.9 84 1.2 ESE 9 24 5 13 1024.4 1024.3 0.0
22/03:00am 8.7 6.2 6.4 85 1.1 ESE 9 24 5 13 1025.1 1024.9 0.0
22/02:30am 8.8 6.3 6.5 85 1.1 ESE 9 20 5 11 1025.4 1025.3 0.0
22/02:00am 8.8 5.5 6.5 85 1.1 ESE 13 30 7 16 1025.4 1025.3 0.0
22/01:30am 8.6 5.7 6.5 87 1.0 ESE 11 22 6 12 1025.9 1025.7 0.0
22/01:00am 8.7 5.8 6.4 85 1.1 ESE 11 22 6 12 1026.2 1026.0 0.0
22/12:30am 8.9 6.0 6.6 85 1.1 ESE 11 19 6 10 1026.3 1026.1 0.0
22/12:00am 9.1 6.3 7.1 87 1.0 ESE 11 24 6 13 1026.3 1026.1 0.0
 
Date/Time
EST
Temp
°C
App
Temp
°C
Dew
Point
Rel
Hum
%
Delta-T
°C
Wind Press
QNH
hPa
Press
MSL
hPa
Rain
since 9 am
mm
Dir
 
Spd
km/h
Gust
km/h
Spd
kts
Gust
kts
21/11:30pm 9.1 6.2 6.6 84 1.2 ESE 11 19 6 10 1026.3 1026.1 0.0
21/11:00pm 8.9 6.1 6.9 87 1.0 E 11 20 6 11 1026.4 1026.3 0.0
21/10:30pm 9.2 5.7 7.0 86 1.1 ESE 15 28 8 15 1026.2 1026.0 0.0
21/10:00pm 9.2 6.4 7.0 86 1.1 ESE 11 24 6 13 1026.1 1025.9 0.0
21/09:30pm 9.5 6.0 7.1 85 1.2 ESE 15 30 8 16 1026.2 1026.0 0.0
21/09:00pm 9.4 6.3 7.4 87 1.0 E 13 26 7 14 1026.0 1025.8 0.0
21/08:30pm 9.4 6.7 7.4 87 1.0 ESE 11 20 6 11 1025.6 1025.5 0.0
21/08:00pm 9.4 6.3 7.2 86 1.1 ESE 13 24 7 13 1025.7 1025.6 0.0
21/07:30pm 9.5 6.4 7.3 86 1.1 ESE 13 24 7 13 1025.6 1025.5 0.0
21/07:00pm 9.9 6.8 7.3 84 1.3 ESE 13 20 7 11 1025.1 1024.9 0.0
21/06:30pm 9.7 7.4 7.3 85 1.2 E 9 17 5 9 1024.8 1024.6 0.0
21/06:00pm 9.6 6.7 6.5 81 1.5 E 11 20 6 11 1024.3 1024.1 0.0
21/05:30pm 10.2 7.6 6.3 77 1.9 ESE 9 20 5 11 1024.1 1023.9 0.0
21/05:00pm 11.0 7.8 7.0 76 2.0 ESE 13 26 7 14 1023.7 1023.5 0.0
21/04:30pm 12.3 8.6 6.2 66 3.0 E 15 28 8 15 1023.4 1023.1 0.0
21/04:00pm 13.7 10.1 5.1 56 4.2 E 13 24 7 13 1022.9 1022.7 0.0
21/03:30pm 13.4 9.4 5.0 57 4.1 ESE 15 30 8 16 1022.8 1022.6 0.0
21/03:00pm 14.3 10.6 4.4 51 4.8 ESE 13 33 7 18 1022.8 1022.6 0.0
21/02:30pm 14.4 10.8 4.8 52 4.7 E 13 24 7 13 1022.9 1022.7 0.0
21/02:00pm 13.9 9.8 4.1 51 4.7 ESE 15 30 8 16 1023.1 1022.9 0.0
21/01:30pm 15.2 11.6 4.8 50 5.1 ESE 13 22 7 12 1023.2 1023.0 0.0
21/01:00pm 15.1 11.4 4.4 48 5.2 E 13 30 7 16 1023.4 1023.1 0.0
21/12:30pm 14.9 10.6 3.3 45 5.5 E 15 26 8 14 1023.8 1023.6 0.0
21/12:00pm 13.6 9.5 4.2 53 4.5 ESE 15 30 8 16 1024.4 1024.3 0.0
21/11:30am 13.4 9.6 3.7 52 4.6 ESE 13 24 7 13 1024.8 1024.6 0.0
21/11:00am 13.7 10.0 4.6 54 4.4 ESE 13 20 7 11 1024.9 1024.7 0.0
21/10:30am 13.6 9.5 4.2 53 4.5 ESE 15 30 8 16 1025.1 1024.9 0.0
21/10:00am 12.5 7.5 3.8 55 4.1 ESE 19 30 10 16 1025.1 1024.9 0.0
21/09:30am 12.6 8.9 4.7 58 3.8 ESE 13 26 7 14 1025.2 1025.0 0.0
21/09:00am 11.5 7.3 3.8 59 3.6 ESE 15 28 8 15 1025.2 1025.0 0.2
21/08:30am 10.8 7.3 3.7 61 3.3 ESE 11 22 6 12 1025.1 1024.9 0.2
21/08:00am 10.0 6.6 4.2 67 2.7 ESE 11 20 6 11 1025.1 1024.9 0.2
21/07:30am 8.8 5.9 4.5 74 2.0 ESE 9 17 5 9 1024.9 1024.7 0.2
21/07:00am 7.2 4.8 4.3 82 1.3 ESE 6 11 3 6 1024.7 1024.5 0.2
21/06:30am 6.5 4.5 4.5 87 0.9 ESE 4 11 2 6 1024.6 1024.4 0.2
21/06:00am 6.0 4.3 4.2 88 0.8 E 2 7 1 4 1024.3 1024.1 0.2
21/05:30am 6.2 4.4 3.7 84 1.1 ENE 2 6 1 3 1024.1 1023.9 0.2
21/05:00am 6.1 4.0 3.9 86 1.0 ESE 4 9 2 5 1023.8 1023.6 0.2
21/04:30am 6.6 4.1 3.7 82 1.3 E 6 13 3 7 1023.6 1023.4 0.2
21/04:00am 6.0 4.2 3.3 83 1.2 NE 2 7 1 4 1023.4 1023.1 0.2
21/03:30am 6.9 4.7 3.5 79 1.5 E 4 9 2 5 1023.2 1023.0 0.2
21/03:00am 6.9 4.4 3.5 79 1.5 ESE 6 13 3 7 1023.2 1023.0 0.2
21/02:30am 7.0 4.3 3.9 81 1.4 ESE 7 15 4 8 1023.2 1023.0 0.2
21/02:00am 7.3 4.7 4.0 79 1.5 E 7 17 4 9 1023.5 1023.3 0.2
21/01:30am 7.2 4.9 4.6 83 1.2 ESE 6 11 3 6 1023.7 1023.5 0.2
21/01:00am 7.7 5.4 4.7 81 1.4 E 6 13 3 7 1023.9 1023.7 0.2
21/12:30am 8.1 4.8 4.6 78 1.6 E 11 17 6 9 1023.9 1023.7 0.2
21/12:00am 8.4 5.9 5.0 79 1.6 E 7 24 4 13 1023.9 1023.7 0.2
 
Date/Time
EST
Temp
°C
App
Temp
°C
Dew
Point
Rel
Hum
%
Delta-T
°C
Wind Press
QNH
hPa
Press
MSL
hPa
Rain
since 9 am
mm
Dir
 
Spd
km/h
Gust
km/h
Spd
kts
Gust
kts
20/11:30pm 8.8 6.1 5.6 80 1.5 E 9 20 5 11 1023.8 1023.6 0.2
20/11:00pm 9.2 6.6 6.3 82 1.4 E 9 17 5 9 1023.7 1023.5 0.2
20/10:30pm 9.5 7.5 7.3 86 1.1 E 7 15 4 8 1023.8 1023.6 0.2
20/10:00pm 9.5 7.2 7.3 86 1.1 E 9 17 5 9 1023.6 1023.4 0.2
20/09:30pm 9.6 7.2 7.2 85 1.2 E 9 26 5 14 1023.6 1023.4 0.2
20/09:00pm 9.1 7.3 7.1 87 1.0 E 6 13 3 7 1023.6 1023.4 0.2
20/08:30pm 9.3 7.3 7.3 87 1.0 E 7 13 4 7 1023.5 1023.3 0.2
20/08:00pm 8.9 6.9 6.4 84 1.2 E 6 11 3 6 1023.4 1023.1 0.2
20/07:30pm 8.9 7.2 6.0 82 1.4 E 4 6 2 3 1022.8 1022.6 0.2
20/07:00pm 8.5 7.2 6.0 84 1.2 E 2 4 1 2 1022.4 1022.1 0.2
20/06:30pm 10.1 8.8 6.0 76 2.0 E 2 6 1 3 1022.0 1021.8 0.2
20/06:00pm 11.1 9.3 5.5 68 2.7 E 4 9 2 5 1021.7 1021.5 0.2
20/05:30pm 11.5 9.8 5.8 68 2.8 ENE 4 7 2 4 1021.3 1021.0 0.2
20/05:00pm 12.5 10.3 5.3 61 3.5 E 6 15 3 8 1020.9 1020.6 0.2
20/04:30pm 13.3 10.5 5.1 57 4.0 E 9 17 5 9 1020.4 1020.1 0.2
20/04:00pm 15.2 12.6 4.3 48 5.3 E 7 17 4 9 1020.0 1019.7 0.2
20/03:30pm 15.7 12.8 4.5 47 5.5 E 9 17 5 9 1019.8 1019.5 0.2
20/03:00pm 16.8 14.4 4.2 43 6.2 ENE 6 11 3 6 1019.7 1019.4 0.2
20/02:30pm 15.5 13.0 3.9 46 5.6 ENE 6 17 3 9 1019.5 1019.3 0.2
20/02:00pm 15.6 13.0 3.2 43 5.9 ESE 6 13 3 7 1019.7 1019.4 0.2
20/01:30pm 15.8 13.8 2.4 40 6.3 WSW 2 7 1 4 1019.9 1019.6 0.2
20/01:00pm 15.7 13.0 3.7 44 5.8 ESE 7 11 4 6 1020.0 1019.7 0.2
20/12:30pm 16.3 13.9 4.5 45 5.8 E 6 11 3 6 1020.2 1019.9 0.2
20/12:00pm 15.4 12.3 3.5 45 5.7 ENE 9 17 5 9 1020.7 1020.5 0.2
20/11:30am 15.4 12.4 4.3 47 5.4 E 9 17 5 9 1021.3 1021.0 0.0
20/11:00am 14.5 11.9 4.4 50 4.9 ESE 7 15 4 8 1021.5 1021.3 0.0
20/10:30am 14.6 12.1 4.5 50 4.9 E 7 17 4 9 1021.6 1021.4 0.0
20/10:00am 13.9 11.3 4.3 52 4.6 ESE 7 15 4 8 1021.7 1021.5 0.0
20/09:30am 12.7 9.3 4.1 56 4.1 E 11 20 6 11 1021.6 1021.4 0.0
20/09:00am 11.5 9.2 5.5 66 2.9 ESE 7 15 4 8 1021.5 1021.3 0.0
20/08:30am 9.4 8.0 5.6 77 1.8 E 2 6 1 3 1021.4 1021.1 0.0
20/08:00am 7.1 5.7 5.6 90 0.7 ESE 2 4 1 2 1021.2 1020.9 0.0
20/07:30am 4.5 3.1 3.4 93 0.5 CALM 0 0 0 0 1020.9 1020.6 0.0
20/07:00am 0.8 -1.1 0.5 98 0.1 CALM 0 0 0 0 1020.6 1020.4 0.0
20/06:30am 0.6 -1.4 0.1 96 0.2 CALM 0 0 0 0 1020.4 1020.1 0.0
20/06:00am 0.4 -1.6 0.1 98 0.1 CALM 0 0 0 0 1020.1 1019.8 0.0
20/05:30am 0.7 -1.2 0.4 98 0.1 CALM 0 0 0 0 1019.8 1019.5 0.0
20/05:00am 0.8 -1.1 0.5 98 0.1 CALM 0 0 0 0 1019.4 1019.1 0.0
20/04:30am 1.3 -0.5 1.0 98 0.1 CALM 0 0 0 0 1019.1 1018.8 0.0
20/04:00am 1.5 -0.3 1.5 100 0.0 CALM 0 0 0 0 1018.9 1018.6 0.0
20/03:30am 1.9 0.2 1.7 99 0.1 CALM 0 0 0 0 1018.8 1018.5 0.0
20/03:00am 2.8 1.2 2.6 99 0.1 CALM 0 0 0 0 1018.5 1018.1 0.0
20/02:30am 3.0 1.5 3.0 100 0.0 CALM 0 0 0 0 1018.5 1018.1 0.0
20/02:00am 3.3 1.8 3.1 99 0.1 CALM 0 0 0 0 1018.2 1017.9 0.0
20/01:30am 3.4 2.0 3.4 100 0.0 CALM 0 0 0 0 1018.5 1018.1 0.0
20/01:00am 4.2 2.9 4.2 100 0.0 CALM 0 0 0 0 1018.3 1018.0 0.0
20/12:30am 5.7 4.7 5.5 99 0.1 CALM 0 0 0 0 1018.6 1018.3 0.0
20/12:00am 6.5 5.7 6.3 99 0.1 CALM 0 4 0 2 1018.5 1018.1 0.0

Other Formats:

Comma delimited format used in spreadsheet applications
http://www.bom.gov.au/fwo/IDQ60801/IDQ60801.94553.axf

JavaScript Object Notation format (JSON) in row-major order
http://www.bom.gov.au/fwo/IDQ60801/IDQ60801.94553.json